createdAt,value
2022-09-27T00:00:31.490Z,9.60
2022-09-27T00:02:58.244Z,9.60
2022-09-27T00:05:24.979Z,9.60
2022-09-27T00:07:51.675Z,9.70
2022-09-27T00:10:19.440Z,9.70
2022-09-27T00:12:46.239Z,9.70
2022-09-27T00:15:13.082Z,9.60
2022-09-27T00:17:40.588Z,9.60
2022-09-27T00:20:08.420Z,9.60
2022-09-27T00:22:35.555Z,9.60
2022-09-27T00:25:05.579Z,9.60
2022-09-27T00:27:32.189Z,9.60
2022-09-27T00:29:58.852Z,9.70
2022-09-27T00:32:25.467Z,9.60
2022-09-27T00:34:52.133Z,9.70
2022-09-27T00:37:18.695Z,9.70
2022-09-27T00:39:45.296Z,9.80
2022-09-27T00:42:12.731Z,9.70
2022-09-27T00:44:39.709Z,9.70
2022-09-27T00:47:36.044Z,9.70
2022-09-27T00:50:17.328Z,9.70
2022-09-27T00:53:17.858Z,9.70
2022-09-27T00:55:55.871Z,9.70
2022-09-27T00:58:28.538Z,9.60
2022-09-27T01:01:00.541Z,9.60
2022-09-27T01:03:39.022Z,9.60
2022-09-27T01:06:08.202Z,9.60
2022-09-27T01:08:35.782Z,9.60
2022-09-27T01:11:11.451Z,9.70
2022-09-27T01:13:54.306Z,9.70
2022-09-27T01:16:29.875Z,9.60
2022-09-27T01:19:27.766Z,9.60
2022-09-27T01:22:23.903Z,9.60
2022-09-27T01:25:05.718Z,9.60
2022-09-27T01:28:02.267Z,9.60
2022-09-27T01:30:43.271Z,9.60
2022-09-27T01:33:22.491Z,9.60
2022-09-27T01:36:17.144Z,9.60
2022-09-27T01:39:14.544Z,9.60
2022-09-27T01:41:51.270Z,9.60
2022-09-27T01:44:35.167Z,9.60
2022-09-27T01:47:05.239Z,9.60
2022-09-27T01:49:47.548Z,9.60
2022-09-27T01:52:19.609Z,9.50
2022-09-27T01:54:52.904Z,9.50
2022-09-27T01:57:25.388Z,9.50
2022-09-27T02:00:01.405Z,9.60
2022-09-27T02:02:31.067Z,9.50
2022-09-27T02:04:59.840Z,9.60
2022-09-27T02:07:34.898Z,9.50
2022-09-27T02:10:12.911Z,9.60
2022-09-27T02:12:57.336Z,9.50
2022-09-27T02:15:26.445Z,9.60
2022-09-27T02:18:01.443Z,9.60
2022-09-27T02:20:43.865Z,9.60
2022-09-27T02:23:31.343Z,9.50
2022-09-27T02:26:05.017Z,9.50
2022-09-27T02:28:53.465Z,9.50
2022-09-27T02:31:20.888Z,9.50
2022-09-27T02:33:56.321Z,9.60
2022-09-27T02:36:22.976Z,9.50
2022-09-27T02:38:49.821Z,9.50
2022-09-27T02:41:21.507Z,9.60
2022-09-27T02:43:52.706Z,9.60
2022-09-27T02:46:38.134Z,9.60
2022-09-27T02:49:25.842Z,9.60
2022-09-27T02:52:03.878Z,9.50
2022-09-27T02:54:40.934Z,9.50
2022-09-27T02:57:35.009Z,9.50
2022-09-27T03:00:07.526Z,9.40
2022-09-27T03:02:51.393Z,9.40
2022-09-27T03:05:22.370Z,9.30
2022-09-27T03:07:49.625Z,9.30
2022-09-27T03:10:20.223Z,9.20
2022-09-27T03:12:47.169Z,9.20
2022-09-27T03:15:13.832Z,9.10
2022-09-27T03:17:40.475Z,9.10
2022-09-27T03:20:08.844Z,9.00
2022-09-27T03:22:35.695Z,9.00
2022-09-27T03:25:02.442Z,9.00
2022-09-27T03:27:29.035Z,9.00
2022-09-27T03:29:55.720Z,8.90
2022-09-27T03:32:22.285Z,8.90
2022-09-27T03:34:48.998Z,8.90
2022-09-27T03:37:15.607Z,8.90
2022-09-27T03:39:42.196Z,8.80
2022-09-27T03:42:08.797Z,8.80
2022-09-27T03:44:35.548Z,8.80
2022-09-27T03:47:02.192Z,8.80
2022-09-27T03:49:29.108Z,8.80
2022-09-27T03:51:55.658Z,8.70
2022-09-27T03:54:22.289Z,8.70
2022-09-27T03:56:48.845Z,8.70
2022-09-27T03:59:15.623Z,8.70
2022-09-27T04:01:43.303Z,8.60
2022-09-27T04:04:11.437Z,8.70
2022-09-27T04:06:38.122Z,8.70
2022-09-27T04:09:04.984Z,8.60
2022-09-27T04:11:31.637Z,8.60
2022-09-27T04:13:58.750Z,8.60
2022-09-27T04:16:25.580Z,8.60
2022-09-27T04:18:52.401Z,8.60
2022-09-27T04:21:20.470Z,8.60
2022-09-27T04:23:47.090Z,8.60
2022-09-27T04:26:13.846Z,8.60
2022-09-27T04:28:40.747Z,8.60
2022-09-27T04:31:07.602Z,8.60
2022-09-27T04:33:34.458Z,8.60
2022-09-27T04:36:19.767Z,8.60
2022-09-27T04:38:46.337Z,8.50
2022-09-27T04:41:13.728Z,8.50
2022-09-27T04:43:40.394Z,8.50
2022-09-27T04:46:07.286Z,8.50
2022-09-27T04:48:34.479Z,8.60
2022-09-27T04:51:02.806Z,8.60
2022-09-27T04:53:30.082Z,8.50
2022-09-27T04:55:57.086Z,8.60
2022-09-27T04:58:24.282Z,8.50
2022-09-27T05:00:52.349Z,8.50
2022-09-27T05:03:19.445Z,8.50
2022-09-27T05:05:46.037Z,8.50
2022-09-27T05:08:12.670Z,8.50
2022-09-27T05:10:39.527Z,8.50
2022-09-27T05:13:06.572Z,8.40
2022-09-27T05:15:34.323Z,8.50
2022-09-27T05:18:00.975Z,8.50
2022-09-27T05:20:27.696Z,8.50
2022-09-27T05:22:54.615Z,8.40
2022-09-27T05:25:21.239Z,8.50
2022-09-27T05:27:47.951Z,8.50
2022-09-27T05:30:14.534Z,8.50
2022-09-27T05:32:44.178Z,8.50
2022-09-27T05:35:11.125Z,8.40
2022-09-27T05:37:38.510Z,8.40
2022-09-27T05:40:22.369Z,8.40
2022-09-27T05:42:53.782Z,8.40
2022-09-27T05:45:22.591Z,8.40
2022-09-27T05:47:54.049Z,8.40
2022-09-27T05:50:20.661Z,8.40
2022-09-27T05:52:48.112Z,8.40
2022-09-27T05:55:15.266Z,8.40
2022-09-27T05:57:42.025Z,8.40
2022-09-27T06:00:10.320Z,8.50
2022-09-27T06:02:37.033Z,8.40
2022-09-27T06:05:03.868Z,8.50
2022-09-27T06:07:32.108Z,8.50
2022-09-27T06:09:58.786Z,8.50
2022-09-27T06:12:25.417Z,8.50
2022-09-27T06:14:52.866Z,8.50
2022-09-27T06:17:19.620Z,8.60
2022-09-27T06:19:47.647Z,8.60
2022-09-27T06:22:14.468Z,8.60
2022-09-27T06:24:41.672Z,8.60
2022-09-27T06:27:08.289Z,8.60
2022-09-27T06:29:35.214Z,8.60
2022-09-27T06:32:02.015Z,8.60
2022-09-27T06:34:28.670Z,8.70
2022-09-27T06:36:55.250Z,8.70
2022-09-27T06:39:21.844Z,8.70
2022-09-27T06:41:48.460Z,8.70
2022-09-27T06:44:15.032Z,8.70
2022-09-27T06:46:42.680Z,8.70
2022-09-27T06:49:09.372Z,8.70
2022-09-27T06:51:36.433Z,8.70
2022-09-27T06:54:02.998Z,8.70
2022-09-27T06:56:29.612Z,8.70
2022-09-27T06:59:14.887Z,8.70
2022-09-27T07:01:41.724Z,8.70
2022-09-27T07:04:11.158Z,8.70
2022-09-27T07:06:37.868Z,8.70
2022-09-27T07:09:06.616Z,8.60
2022-09-27T07:11:36.809Z,8.60
2022-09-27T07:14:04.662Z,8.60
2022-09-27T07:16:31.704Z,8.70
2022-09-27T07:18:58.340Z,8.70
2022-09-27T07:21:24.963Z,8.70
2022-09-27T07:23:51.563Z,8.70
2022-09-27T07:26:18.276Z,8.70
2022-09-27T07:28:46.014Z,8.80
2022-09-27T07:31:12.901Z,8.80
2022-09-27T07:33:43.267Z,8.80
2022-09-27T07:36:11.367Z,8.80
2022-09-27T07:38:38.118Z,8.80
2022-09-27T07:41:14.676Z,8.90
2022-09-27T07:43:44.489Z,9.00
2022-09-27T07:46:11.196Z,9.10
2022-09-27T07:48:37.872Z,9.20
2022-09-27T07:51:07.611Z,9.20
2022-09-27T07:53:34.146Z,9.40
2022-09-27T07:56:00.955Z,9.40
2022-09-27T07:58:28.108Z,9.50
2022-09-27T08:00:56.771Z,9.60
2022-09-27T08:03:23.469Z,9.60
2022-09-27T08:05:50.075Z,9.60
2022-09-27T08:08:17.192Z,9.70
2022-09-27T08:10:47.047Z,9.70
2022-09-27T08:13:16.135Z,9.60
2022-09-27T08:15:42.794Z,9.60
2022-09-27T08:18:09.619Z,9.70
2022-09-27T08:20:36.767Z,9.70
2022-09-27T08:23:04.263Z,9.70
2022-09-27T08:25:31.223Z,9.70
2022-09-27T08:27:59.040Z,9.70
2022-09-27T08:30:26.489Z,9.80
2022-09-27T08:32:57.138Z,9.70
2022-09-27T08:35:23.884Z,9.90
2022-09-27T08:37:59.705Z,9.80
2022-09-27T08:40:38.197Z,9.80
2022-09-27T08:43:17.161Z,9.90
2022-09-27T08:45:52.946Z,10.00
2022-09-27T08:48:19.674Z,10.10
2022-09-27T08:50:48.093Z,10.20
2022-09-27T08:53:14.638Z,10.20
2022-09-27T08:55:58.922Z,10.10
2022-09-27T08:58:46.490Z,10.10
2022-09-27T09:01:18.297Z,9.90
2022-09-27T09:03:51.610Z,9.80
2022-09-27T09:06:28.998Z,9.70
2022-09-27T09:09:33.207Z,9.60
2022-09-27T09:12:47.937Z,9.70
2022-09-27T09:15:56.798Z,9.70
2022-09-27T09:18:35.749Z,9.70
2022-09-27T09:21:25.618Z,9.70
2022-09-27T09:24:13.612Z,9.80
2022-09-27T09:26:47.332Z,9.80
2022-09-27T09:29:39.815Z,9.90
2022-09-27T09:32:25.597Z,9.90
2022-09-27T09:34:57.877Z,10.10
2022-09-27T09:37:39.745Z,10.20
2022-09-27T09:40:09.316Z,10.20
2022-09-27T09:42:42.917Z,10.30
2022-09-27T09:45:21.059Z,10.30
2022-09-27T09:48:12.048Z,10.30
2022-09-27T09:50:50.721Z,10.30
2022-09-27T09:53:36.672Z,10.30
2022-09-27T09:56:07.843Z,10.30
2022-09-27T09:58:49.437Z,10.30
2022-09-27T10:01:22.343Z,10.30
2022-09-27T10:03:49.349Z,10.30
2022-09-27T10:06:17.837Z,10.40
2022-09-27T10:08:44.876Z,10.60
2022-09-27T10:11:25.607Z,10.60
2022-09-27T10:13:53.303Z,10.70
2022-09-27T10:16:21.428Z,10.80
2022-09-27T10:18:50.824Z,11.20
2022-09-27T10:21:25.625Z,11.40
2022-09-27T10:24:17.768Z,11.50
2022-09-27T10:26:47.182Z,11.60
2022-09-27T10:29:16.988Z,11.40
2022-09-27T10:31:47.760Z,11.30
2022-09-27T10:34:32.804Z,11.30
2022-09-27T10:37:17.464Z,11.20
2022-09-27T10:39:46.343Z,11.20
2022-09-27T10:42:38.529Z,11.30
2022-09-27T10:45:22.888Z,11.30
2022-09-27T10:47:49.711Z,11.50
2022-09-27T10:50:45.953Z,11.50
2022-09-27T10:53:19.086Z,11.80
2022-09-27T10:55:49.595Z,12.40
2022-09-27T10:58:37.986Z,12.30
2022-09-27T11:01:08.670Z,12.20
2022-09-27T11:03:57.783Z,12.00
2022-09-27T11:06:24.347Z,11.60
2022-09-27T11:08:52.924Z,11.20
2022-09-27T11:11:28.282Z,10.90
2022-09-27T11:14:08.250Z,10.70
2022-09-27T11:17:16.083Z,10.70
2022-09-27T11:20:15.150Z,10.90
2022-09-27T11:23:11.874Z,11.40
2022-09-27T11:25:58.067Z,12.10
2022-09-27T11:28:43.704Z,12.80
2022-09-27T11:31:25.644Z,13.30
2022-09-27T11:34:21.110Z,13.30
2022-09-27T11:37:15.525Z,13.40
2022-09-27T11:39:54.242Z,13.30
2022-09-27T11:42:49.648Z,13.00
2022-09-27T11:45:41.190Z,12.80
2022-09-27T11:48:31.058Z,12.50
2022-09-27T11:51:24.117Z,12.40
2022-09-27T11:54:17.876Z,12.50
2022-09-27T11:57:00.701Z,12.60
2022-09-27T11:59:38.691Z,12.70
2022-09-27T12:02:58.819Z,12.80
2022-09-27T12:05:39.759Z,12.80
2022-09-27T12:08:30.451Z,12.60
2022-09-27T12:11:20.055Z,12.60
2022-09-27T12:13:57.010Z,12.60
2022-09-27T12:16:25.627Z,12.70
2022-09-27T12:18:53.359Z,12.70
2022-09-27T12:21:21.333Z,12.60
2022-09-27T12:23:55.395Z,12.60
2022-09-27T12:26:37.555Z,12.60
2022-09-27T12:29:14.234Z,12.40
2022-09-27T12:32:08.862Z,12.30
2022-09-27T12:34:42.481Z,12.20
2022-09-27T12:37:20.931Z,12.10
2022-09-27T12:39:57.406Z,12.00
2022-09-27T12:42:29.021Z,11.90
2022-09-27T12:44:56.393Z,11.90
2022-09-27T12:47:38.621Z,11.90
2022-09-27T12:50:20.004Z,12.00
2022-09-27T12:52:52.970Z,12.10
2022-09-27T12:55:38.887Z,12.10
2022-09-27T12:58:14.649Z,12.00
2022-09-27T13:00:47.191Z,12.00
2022-09-27T13:03:32.606Z,12.00
2022-09-27T13:06:05.073Z,11.90
2022-09-27T13:08:53.884Z,11.80
2022-09-27T13:11:26.397Z,11.70
2022-09-27T13:13:58.179Z,11.70
2022-09-27T13:16:25.788Z,11.60
2022-09-27T13:19:01.662Z,11.60
2022-09-27T13:21:49.330Z,11.70
2022-09-27T13:24:40.014Z,11.80
2022-09-27T13:27:28.593Z,12.10
2022-09-27T13:30:16.305Z,12.10
2022-09-27T13:33:08.556Z,12.30
2022-09-27T13:35:35.378Z,12.20
2022-09-27T13:38:02.866Z,12.10
2022-09-27T13:40:36.343Z,11.90
2022-09-27T13:43:13.307Z,11.90
2022-09-27T13:45:51.131Z,11.90
2022-09-27T13:48:37.896Z,11.60
2022-09-27T13:51:09.787Z,11.60
2022-09-27T13:53:40.655Z,11.50
2022-09-27T13:56:48.224Z,11.50
2022-09-27T13:59:27.866Z,11.50
2022-09-27T14:02:08.701Z,11.50
2022-09-27T14:04:51.463Z,11.50
2022-09-27T14:07:40.626Z,11.60
2022-09-27T14:10:14.151Z,11.60
2022-09-27T14:12:42.518Z,11.80
2022-09-27T14:15:19.202Z,11.80
2022-09-27T14:17:46.017Z,11.80
2022-09-27T14:20:36.726Z,11.70
2022-09-27T14:23:04.509Z,11.80
2022-09-27T14:25:31.221Z,11.90
2022-09-27T14:28:00.735Z,11.90
2022-09-27T14:30:29.481Z,11.90
2022-09-27T14:33:01.591Z,11.90
2022-09-27T14:35:48.619Z,12.00
2022-09-27T14:38:37.032Z,12.10
2022-09-27T14:41:07.144Z,12.00
2022-09-27T14:43:36.169Z,12.00
2022-09-27T14:46:06.963Z,12.00
2022-09-27T14:48:35.724Z,12.00
2022-09-27T14:51:20.661Z,12.00
2022-09-27T14:53:56.950Z,11.80
2022-09-27T14:56:31.785Z,11.80
2022-09-27T14:59:03.006Z,11.70
2022-09-27T15:01:30.323Z,11.60
2022-09-27T15:04:08.543Z,11.60
2022-09-27T15:06:36.831Z,11.50
2022-09-27T15:09:05.013Z,11.50
2022-09-27T15:11:33.193Z,11.40
2022-09-27T15:14:02.000Z,11.50
2022-09-27T15:16:31.093Z,11.50
2022-09-27T15:19:15.569Z,11.40
2022-09-27T15:21:42.210Z,11.40
2022-09-27T15:24:38.517Z,11.40
2022-09-27T15:27:18.057Z,11.30
2022-09-27T15:29:51.365Z,11.30
2022-09-27T15:32:21.706Z,11.30
2022-09-27T15:34:48.696Z,11.40
2022-09-27T15:37:36.964Z,11.40
2022-09-27T15:40:19.640Z,11.30
2022-09-27T15:42:57.784Z,11.30
2022-09-27T15:45:29.440Z,11.40
2022-09-27T15:47:56.082Z,11.40
2022-09-27T15:50:25.586Z,11.30
2022-09-27T15:52:57.130Z,11.30
2022-09-27T15:55:26.904Z,11.30
2022-09-27T15:58:02.008Z,11.20
2022-09-27T16:00:29.774Z,11.20
2022-09-27T16:02:56.783Z,11.00
2022-09-27T16:05:24.294Z,10.80
2022-09-27T16:07:51.398Z,10.50
2022-09-27T16:10:22.443Z,10.40
2022-09-27T16:12:50.802Z,10.30
2022-09-27T16:15:17.618Z,10.00
2022-09-27T16:17:44.512Z,9.80
2022-09-27T16:20:18.504Z,9.80
2022-09-27T16:22:45.773Z,9.70
2022-09-27T16:25:12.724Z,9.70
2022-09-27T16:27:39.409Z,9.60
2022-09-27T16:30:06.761Z,9.50
2022-09-27T16:32:34.080Z,9.50
2022-09-27T16:35:00.639Z,9.40
2022-09-27T16:37:27.898Z,9.30
2022-09-27T16:39:54.488Z,9.20
2022-09-27T16:42:21.121Z,9.00
2022-09-27T16:44:49.092Z,8.90
2022-09-27T16:47:15.775Z,8.80
2022-09-27T16:50:01.157Z,8.80
2022-09-27T16:52:34.014Z,8.80
2022-09-27T16:55:00.689Z,8.90
2022-09-27T16:57:33.486Z,8.80
2022-09-27T17:00:04.991Z,8.80
2022-09-27T17:02:32.584Z,8.70
2022-09-27T17:04:59.185Z,8.70
2022-09-27T17:07:25.823Z,8.70
2022-09-27T17:09:52.433Z,8.60
2022-09-27T17:12:19.707Z,8.60
2022-09-27T17:14:46.331Z,8.60
2022-09-27T17:17:12.998Z,8.60
2022-09-27T17:19:39.604Z,8.70
2022-09-27T17:22:09.024Z,8.60
2022-09-27T17:24:35.871Z,8.60
2022-09-27T17:27:03.305Z,8.60
2022-09-27T17:29:31.001Z,8.60
2022-09-27T17:31:57.626Z,8.60
2022-09-27T17:34:24.258Z,8.60
2022-09-27T17:36:51.813Z,8.60
2022-09-27T17:39:21.181Z,8.50
2022-09-27T17:41:51.204Z,8.60
2022-09-27T17:44:18.642Z,8.50
2022-09-27T17:46:46.612Z,8.60
2022-09-27T17:49:32.451Z,8.50
2022-09-27T17:51:59.304Z,8.50
2022-09-27T17:54:27.962Z,8.40
2022-09-27T17:56:56.179Z,8.40
2022-09-27T17:59:23.007Z,8.40
2022-09-27T18:01:49.959Z,8.40
2022-09-27T18:04:19.564Z,8.40
2022-09-27T18:06:47.456Z,8.40
2022-09-27T18:09:16.535Z,8.40
2022-09-27T18:11:44.198Z,8.40
2022-09-27T18:14:11.041Z,8.50
2022-09-27T18:16:42.893Z,8.40
2022-09-27T18:19:13.055Z,8.40
2022-09-27T18:21:39.750Z,8.50
2022-09-27T18:24:07.175Z,8.50
2022-09-27T18:26:36.720Z,8.50
2022-09-27T18:29:06.551Z,8.60
2022-09-27T18:31:33.198Z,8.50
2022-09-27T18:33:59.995Z,8.60
2022-09-27T18:36:27.452Z,8.60
2022-09-27T18:39:03.107Z,8.60
2022-09-27T18:41:32.399Z,8.60
2022-09-27T18:44:01.816Z,8.50
2022-09-27T18:46:35.606Z,8.60
2022-09-27T18:49:08.118Z,8.60
2022-09-27T18:51:37.696Z,8.60
2022-09-27T18:54:05.825Z,8.50
2022-09-27T18:56:39.606Z,8.50
2022-09-27T18:59:10.414Z,8.50
2022-09-27T19:01:39.830Z,8.40
2022-09-27T19:04:08.109Z,8.50
2022-09-27T19:06:35.948Z,8.40
2022-09-27T19:09:03.876Z,8.40
2022-09-27T19:11:30.651Z,8.40
2022-09-27T19:13:58.640Z,8.40
2022-09-27T19:16:26.886Z,8.40
2022-09-27T19:18:54.154Z,8.40
2022-09-27T19:21:26.227Z,8.40
2022-09-27T19:23:53.658Z,8.40
2022-09-27T19:26:22.922Z,8.30
2022-09-27T19:28:50.410Z,8.40
2022-09-27T19:31:23.010Z,8.30
2022-09-27T19:33:49.730Z,8.20
2022-09-27T19:36:18.175Z,8.20
2022-09-27T19:38:45.638Z,8.30
2022-09-27T19:41:14.727Z,8.20
2022-09-27T19:43:43.819Z,8.20
2022-09-27T19:46:15.658Z,8.20
2022-09-27T19:48:43.514Z,8.20
2022-09-27T19:51:15.371Z,8.10
2022-09-27T19:53:42.435Z,8.10
2022-09-27T19:56:10.573Z,8.10
2022-09-27T19:58:39.416Z,8.10
2022-09-27T20:01:12.363Z,8.10
2022-09-27T20:03:41.802Z,8.00
2022-09-27T20:06:11.206Z,8.00
2022-09-27T20:08:38.273Z,8.00
2022-09-27T20:11:10.766Z,8.00
2022-09-27T20:13:38.288Z,8.00
2022-09-27T20:16:09.797Z,7.90
2022-09-27T20:18:47.982Z,7.90
2022-09-27T20:21:16.296Z,7.80
2022-09-27T20:23:43.275Z,7.80
2022-09-27T20:26:13.081Z,7.80
2022-09-27T20:28:40.821Z,7.80
2022-09-27T20:31:08.753Z,7.80
2022-09-27T20:33:41.120Z,7.70
2022-09-27T20:36:09.754Z,7.70
2022-09-27T20:38:36.392Z,7.70
2022-09-27T20:41:03.879Z,7.70
2022-09-27T20:43:31.534Z,7.60
2022-09-27T20:46:10.936Z,7.60
2022-09-27T20:48:38.376Z,7.60
2022-09-27T20:51:05.306Z,7.60
2022-09-27T20:53:33.023Z,7.60
2022-09-27T20:56:03.726Z,7.60
2022-09-27T20:58:32.144Z,7.60
2022-09-27T21:01:05.776Z,7.60
2022-09-27T21:03:32.710Z,7.60
2022-09-27T21:05:59.563Z,7.60
2022-09-27T21:08:29.699Z,7.60
2022-09-27T21:11:03.055Z,7.60
2022-09-27T21:13:29.688Z,7.70
2022-09-27T21:16:00.872Z,7.70
2022-09-27T21:18:27.571Z,7.70
2022-09-27T21:21:01.891Z,7.70
2022-09-27T21:23:32.133Z,7.70
2022-09-27T21:26:16.088Z,7.70
2022-09-27T21:28:45.258Z,7.80
2022-09-27T21:31:26.283Z,7.70
2022-09-27T21:33:55.333Z,7.80
2022-09-27T21:36:27.357Z,7.80
2022-09-27T21:38:54.957Z,7.90
2022-09-27T21:41:21.852Z,7.90
2022-09-27T21:43:49.261Z,7.90
2022-09-27T21:46:17.509Z,7.90
2022-09-27T21:48:46.754Z,7.90
2022-09-27T21:51:16.435Z,7.80
2022-09-27T21:53:49.137Z,7.80
2022-09-27T21:56:15.712Z,7.70
2022-09-27T21:58:42.609Z,7.70
2022-09-27T22:01:30.756Z,7.70
2022-09-27T22:03:58.509Z,7.70
2022-09-27T22:06:27.769Z,7.70
2022-09-27T22:08:55.681Z,7.80
2022-09-27T22:11:49.742Z,7.70
2022-09-27T22:14:20.184Z,7.70
2022-09-27T22:16:47.428Z,7.80
2022-09-27T22:19:15.626Z,7.70
2022-09-27T22:21:42.914Z,7.70
2022-09-27T22:24:15.355Z,7.60
2022-09-27T22:26:46.480Z,7.70
2022-09-27T22:29:13.117Z,7.70
2022-09-27T22:31:39.756Z,7.70
2022-09-27T22:34:10.689Z,7.80
2022-09-27T22:36:37.638Z,7.80
2022-09-27T22:39:04.268Z,7.80
2022-09-27T22:41:31.833Z,7.80
2022-09-27T22:43:58.518Z,7.70
2022-09-27T22:46:25.401Z,7.70
2022-09-27T22:48:52.275Z,7.70
2022-09-27T22:51:19.218Z,7.70
2022-09-27T22:53:45.851Z,7.70
2022-09-27T22:56:18.248Z,7.70
2022-09-27T22:58:47.212Z,7.70
2022-09-27T23:01:22.576Z,7.70
2022-09-27T23:03:50.379Z,7.70
2022-09-27T23:06:18.567Z,7.80
2022-09-27T23:08:45.543Z,7.80
2022-09-27T23:11:14.797Z,7.80
2022-09-27T23:13:42.862Z,7.80
2022-09-27T23:16:12.208Z,7.80
2022-09-27T23:18:39.566Z,7.80
2022-09-27T23:21:08.343Z,7.70
2022-09-27T23:23:37.350Z,7.80
2022-09-27T23:26:06.761Z,7.80
2022-09-27T23:28:34.222Z,7.80
2022-09-27T23:31:08.622Z,7.80
2022-09-27T23:33:40.646Z,7.80
2022-09-27T23:36:10.312Z,7.90
2022-09-27T23:38:38.763Z,7.80
2022-09-27T23:41:08.089Z,7.90
2022-09-27T23:43:35.335Z,7.90
2022-09-27T23:46:06.295Z,7.90
2022-09-27T23:48:36.702Z,7.90
2022-09-27T23:51:05.782Z,7.90
2022-09-27T23:53:32.430Z,7.90
2022-09-27T23:56:12.170Z,7.90
2022-09-27T23:58:40.684Z,7.90
